Time;durP1;ratioP1;P1;durP2;ratioP2;P2;SDS_P1;SDS_P2;PMS_P1;PMS_P2;Temp;Humidity;BMP_temperature;BMP_pressure;BME280_temperature;BME280_humidity;BME280_pressure;Samples;Min_cycle;Max_cycle;Signal;HPM_P1;HPM_P2
2023/01/16 00:01:19;;;;;;;7.60;4.60;;;;;;;5.06;80.10;99033.19;131190;1252;107519;-74
2023/01/16 00:04:25;;;;;;;9.90;4.50;;;;;;;5.00;80.31;99033.73;131188;1248;107460;-71
2023/01/16 00:07:30;;;;;;;8.40;4.10;;;;;;;4.97;80.23;99031.89;131060;1252;107525;-73
2023/01/16 00:10:36;;;;;;;7.70;4.60;;;;;;;4.98;80.09;99028.17;131280;1248;108686;-72
2023/01/16 00:13:42;;;;;;;8.60;4.70;;;;;;;4.99;80.30;99025.80;131172;1252;107550;-75
2023/01/16 00:16:47;;;;;;;7.00;4.40;;;;;;;4.98;80.31;99025.85;131340;1252;107358;-72
2023/01/16 00:19:53;;;;;;;7.20;4.20;;;;;;;4.95;79.98;99027.88;131347;1248;107447;-72
2023/01/16 00:22:58;;;;;;;8.20;4.70;;;;;;;4.92;80.07;99027.51;131319;1248;107504;-72
2023/01/16 00:26:09;;;;;;;6.50;4.40;;;;;;;4.89;79.95;99032.19;131120;1252;108443;-72
2023/01/16 00:29:14;;;;;;;8.00;4.80;;;;;;;4.83;79.98;99038.52;131234;1252;107528;-72
2023/01/16 00:32:20;;;;;;;7.10;4.20;;;;;;;4.77;79.95;99033.83;131191;1252;106671;-72
2023/01/16 00:35:26;;;;;;;7.20;4.10;;;;;;;4.72;79.83;99035.39;131087;1250;106594;-73
2023/01/16 00:38:33;;;;;;;7.70;3.70;;;;;;;4.70;79.81;99037.00;131096;1252;107479;-73
2023/01/16 00:41:39;;;;;;;5.90;3.70;;;;;;;4.68;79.81;99045.77;131048;1248;107541;-73
2023/01/16 00:44:44;;;;;;;6.10;4.00;;;;;;;4.68;79.84;99055.67;131304;1252;107500;-75
2023/01/16 00:47:50;;;;;;;7.30;4.00;;;;;;;4.66;79.60;99051.73;131300;1252;107357;-73
2023/01/16 00:50:55;;;;;;;7.30;4.10;;;;;;;4.62;79.62;99050.80;131305;1252;107600;-73
2023/01/16 00:54:01;;;;;;;7.20;4.00;;;;;;;4.58;79.60;99050.10;131220;1252;106692;-73
2023/01/16 00:57:06;;;;;;;7.50;4.10;;;;;;;4.53;79.46;99045.80;131124;1252;107505;-74
2023/01/16 01:00:14;;;;;;;8.10;4.40;;;;;;;4.46;79.49;99046.56;131195;1252;108648;-73
2023/01/16 01:03:19;;;;;;;7.90;4.20;;;;;;;4.38;79.54;99045.83;131389;1252;107540;-73
2023/01/16 01:06:25;;;;;;;7.00;3.90;;;;;;;4.30;79.52;99048.31;131086;1252;107527;-73
2023/01/16 01:09:30;;;;;;;7.30;3.90;;;;;;;4.22;79.51;99048.46;131135;1252;108713;-73
2023/01/16 01:12:36;;;;;;;7.70;4.30;;;;;;;4.16;79.46;99045.34;131080;1261;107494;-73
2023/01/16 01:15:42;;;;;;;6.20;3.40;;;;;;;4.11;79.49;99043.15;131099;1252;106276;-71
2023/01/16 01:18:47;;;;;;;7.00;3.80;;;;;;;4.10;79.56;99042.22;131337;1253;108497;-74
2023/01/16 01:21:53;;;;;;;6.50;3.80;;;;;;;4.12;79.57;99037.96;131360;1252;107368;-72
2023/01/16 01:24:59;;;;;;;5.90;3.60;;;;;;;4.11;79.40;99040.84;131356;1252;107431;-72
2023/01/16 01:28:05;;;;;;;9.20;4.40;;;;;;;4.08;79.32;99034.52;131248;1259;109367;-73
2023/01/16 01:31:13;;;;;;;6.50;4.00;;;;;;;4.03;79.39;99038.64;131078;1252;107531;-72
2023/01/16 01:34:18;;;;;;;6.40;3.80;;;;;;;3.96;79.39;99033.45;131341;1251;107247;-72
2023/01/16 01:37:24;;;;;;;6.90;4.10;;;;;;;3.90;79.37;99032.23;131317;1250;107375;-72
2023/01/16 01:40:30;;;;;;;5.70;3.80;;;;;;;3.85;79.28;99031.52;131351;1253;107208;-72
2023/01/16 01:43:47;;;;;;;9.60;4.10;;;;;;;3.78;79.43;99033.75;131285;1252;106489;-72
2023/01/16 01:46:53;;;;;;;7.20;4.20;;;;;;;3.71;79.44;99027.47;131119;1250;106742;-73
2023/01/16 01:50:02;;;;;;;9.10;4.30;;;;;;;3.67;79.53;99023.61;131350;1253;107567;-72
2023/01/16 01:53:13;;;;;;;6.60;3.30;;;;;;;3.67;79.48;99028.19;131210;1252;107572;-72
2023/01/16 01:56:24;;;;;;;7.70;4.00;;;;;;;3.68;79.49;99028.05;131359;1252;107420;-72
2023/01/16 01:59:32;;;;;;;6.40;3.80;;;;;;;3.71;79.39;99023.59;131284;1252;108632;-72
2023/01/16 02:02:44;;;;;;;7.40;3.80;;;;;;;3.70;79.24;99023.89;131102;1252;107361;-73
2023/01/16 02:05:53;;;;;;;6.50;3.70;;;;;;;3.67;79.25;99022.69;131199;1261;108778;-73
2023/01/16 02:08:59;;;;;;;7.30;4.00;;;;;;;3.64;79.45;99019.34;131135;1252;107240;-72
2023/01/16 02:12:09;;;;;;;7.40;4.70;;;;;;;3.59;79.37;99019.27;131258;1263;108699;-72
2023/01/16 02:15:15;;;;;;;6.80;4.00;;;;;;;3.54;79.42;99013.55;131085;1252;107516;-72
2023/01/16 02:22:14;;;;;;;9.30;5.20;;;;;;;3.44;79.80;99014.77;131174;1248;108614;-73
2023/01/16 02:25:59;;;;;;;8.00;4.30;;;;;;;3.40;79.68;99011.51;130861;1250;108581;-73
2023/01/16 02:29:22;;;;;;;6.50;3.60;;;;;;;3.42;79.88;99009.20;131108;1251;108638;-72
2023/01/16 02:32:40;;;;;;;;;;;;;;;3.44;79.85;99010.06;131112;1252;107423;-73
2023/01/16 02:35:59;;;;;;;6.70;4.00;;;;;;;3.47;80.01;99006.56;131203;1250;108474;-73
2023/01/16 02:39:12;;;;;;;10.20;5.20;;;;;;;3.46;79.95;99002.44;131126;1253;107530;-73
2023/01/16 02:42:27;;;;;;;7.40;4.50;;;;;;;3.44;79.80;99001.20;131191;1252;107511;-72
2023/01/16 02:45:42;;;;;;;8.70;4.50;;;;;;;3.42;79.86;98999.84;131251;1251;107529;-73
2023/01/16 02:48:59;;;;;;;9.00;5.30;;;;;;;3.38;79.96;99000.70;131280;1252;107615;-72
2023/01/16 02:52:12;;;;;;;9.20;5.00;;;;;;;3.32;79.99;98998.95;131200;1248;107816;-72
2023/01/16 02:55:23;;;;;;;7.50;4.40;;;;;;;3.28;79.86;99000.55;131151;1253;107478;-73
2023/01/16 02:58:32;;;;;;;8.00;4.90;;;;;;;3.23;79.98;99001.59;131100;1253;107532;-73
2023/01/16 03:01:40;;;;;;;8.20;4.60;;;;;;;3.21;79.89;99005.95;131312;1250;107508;-71
2023/01/16 03:04:50;;;;;;;7.70;4.80;;;;;;;3.23;80.19;99001.69;131212;1252;108709;-71
2023/01/16 03:08:26;;;;;;;8.60;4.80;;;;;;;3.25;79.85;98998.52;131200;1252;108664;-74
2023/01/16 03:11:34;;;;;;;7.60;4.90;;;;;;;3.27;79.89;98998.56;131177;1250;108262;-71
2023/01/16 03:14:49;;;;;;;7.90;5.40;;;;;;;3.27;79.94;99002.22;131337;1252;107647;-72
2023/01/16 03:18:09;;;;;;;10.10;5.40;;;;;;;3.25;80.05;99001.36;131181;1253;107381;-71
2023/01/16 03:21:21;;;;;;;8.20;5.40;;;;;;;3.21;80.06;98998.25;131292;1248;107663;-74
2023/01/16 03:24:37;;;;;;;9.60;5.50;;;;;;;3.16;80.10;99000.04;131164;1250;107452;-74
2023/01/16 03:27:53;;;;;;;8.70;5.40;;;;;;;3.11;79.94;99005.69;131076;1252;107492;-73
2023/01/16 03:31:07;;;;;;;9.50;5.60;;;;;;;3.07;80.12;99002.71;131222;1252;107460;-71
2023/01/16 03:34:22;;;;;;;7.40;4.50;;;;;;;3.07;80.27;99001.06;131395;1252;107464;-72
2023/01/16 03:37:32;;;;;;;8.20;5.50;;;;;;;3.09;80.32;99002.98;131388;1252;107356;-72
2023/01/16 03:40:43;;;;;;;11.70;6.80;;;;;;;3.13;80.23;99005.90;131190;1252;107501;-72
2023/01/16 03:43:53;;;;;;;36.80;13.60;;;;;;;3.16;80.19;99002.18;131076;1252;106292;-73
2023/01/16 03:47:01;;;;;;;20.20;8.90;;;;;;;3.17;80.11;99003.54;131097;1253;107611;-73
2023/01/16 03:50:11;;;;;;;193.40;59.20;;;;;;;3.14;79.89;99005.08;131090;1252;108110;-73
2023/01/16 03:53:20;;;;;;;41.20;14.70;;;;;;;3.09;79.75;99004.19;131233;1258;107506;-73
2023/01/16 03:56:29;;;;;;;12.60;6.60;;;;;;;3.05;79.96;99005.62;131137;1253;107602;-73
2023/01/16 03:59:37;;;;;;;18.90;7.80;;;;;;;3.00;79.96;99006.42;131167;1252;107376;-71
2023/01/16 04:02:49;;;;;;;13.20;6.10;;;;;;;2.96;79.90;99003.78;131268;1252;107320;-71
2023/01/16 04:06:00;;;;;;;22.30;9.00;;;;;;;2.95;80.15;99006.15;131157;1253;106586;-72
2023/01/16 04:09:13;;;;;;;11.40;6.70;;;;;;;2.95;79.89;99005.58;131055;1252;107506;-71
2023/01/16 04:12:21;;;;;;;11.00;6.10;;;;;;;2.96;79.97;99007.08;131055;1250;107456;-73
2023/01/16 04:15:31;;;;;;;13.40;6.70;;;;;;;2.96;79.97;99006.21;131265;1253;107535;-74
2023/01/16 04:18:38;;;;;;;31.00;12.70;;;;;;;2.94;79.86;99003.53;131419;1251;107684;-72
2023/01/16 04:21:47;;;;;;;21.30;9.60;;;;;;;2.91;79.82;99008.60;131479;1247;107408;-71
2023/01/16 04:24:55;;;;;;;10.00;5.70;;;;;;;2.86;79.93;99010.23;131473;1253;107509;-73
2023/01/16 04:28:01;;;;;;;10.80;5.70;;;;;;;2.82;79.88;99009.71;131297;1252;107467;-70
2023/01/16 04:31:07;;;;;;;11.60;6.70;;;;;;;2.77;79.99;99007.22;131320;1252;108409;-71
2023/01/16 04:34:12;;;;;;;28.70;13.10;;;;;;;2.70;79.81;99005.31;131172;1253;107573;-71
2023/01/16 04:37:19;;;;;;;14.50;7.20;;;;;;;2.65;80.12;99001.50;131096;1248;109289;-71
2023/01/16 04:40:25;;;;;;;9.30;4.30;;;;;;;2.66;80.10;98999.14;131253;1253;107386;-71
2023/01/16 04:43:30;;;;;;;34.30;13.80;;;;;;;2.68;80.16;99002.31;131286;1252;106615;-72
2023/01/16 04:46:37;;;;;;;46.90;20.20;;;;;;;2.70;80.01;99007.36;131309;1253;107369;-71
2023/01/16 04:49:43;;;;;;;78.10;30.50;;;;;;;2.72;79.89;99003.75;131398;1252;107547;-70
2023/01/16 04:52:49;;;;;;;43.00;19.10;;;;;;;2.71;79.86;98995.18;131243;1250;107397;-71
2023/01/16 04:55:54;;;;;;;21.10;11.40;;;;;;;2.66;79.94;98988.59;131445;1252;106545;-72
2023/01/16 04:59:00;;;;;;;13.00;6.80;;;;;;;2.63;79.95;98993.80;131426;1252;107544;-72
2023/01/16 05:02:06;;;;;;;28.70;13.30;;;;;;;2.61;79.70;98996.29;131404;1253;107471;-72
2023/01/16 05:05:11;;;;;;;67.80;23.50;;;;;;;2.58;79.86;98989.19;131488;1254;106630;-72
2023/01/16 05:08:17;;;;;;;62.10;18.80;;;;;;;2.54;79.74;98991.20;131508;1254;107264;-72
2023/01/16 05:11:22;;;;;;;21.20;7.00;;;;;;;2.51;79.88;98995.69;131369;1253;107517;-72
2023/01/16 05:14:28;;;;;;;10.50;4.50;;;;;;;2.51;79.88;98990.83;131454;1248;107372;-72
2023/01/16 05:17:33;;;;;;;12.40;5.50;;;;;;;2.52;79.96;98988.92;131457;1253;107555;-72
2023/01/16 05:20:39;;;;;;;33.90;11.40;;;;;;;2.55;79.85;98988.83;131541;1253;107520;-70
2023/01/16 05:23:45;;;;;;;250.80;62.90;;;;;;;2.54;79.66;98983.69;131438;1253;107415;-73
2023/01/16 05:26:51;;;;;;;45.90;14.70;;;;;;;2.50;79.71;98983.19;131478;1253;108664;-73
2023/01/16 05:29:56;;;;;;;29.40;10.70;;;;;;;2.48;79.68;98978.43;131350;1253;107488;-73
2023/01/16 05:33:02;;;;;;;17.90;8.20;;;;;;;2.45;79.76;98977.64;131198;1248;108601;-72
2023/01/16 05:36:08;;;;;;;17.30;8.10;;;;;;;2.41;79.80;98972.01;131153;1253;107625;-73
2023/01/16 05:39:14;;;;;;;30.40;11.40;;;;;;;2.38;79.87;98964.56;131249;1254;107532;-71
2023/01/16 05:42:21;;;;;;;39.30;13.30;;;;;;;2.34;79.73;98957.70;131107;1252;107629;-72
2023/01/16 05:45:27;;;;;;;24.00;9.30;;;;;;;2.30;79.89;98954.67;131251;1261;106827;-71
2023/01/16 05:48:35;;;;;;;23.40;8.50;;;;;;;2.29;79.70;98946.71;131246;1253;107521;-76
2023/01/16 05:51:41;;;;;;;38.30;12.30;;;;;;;2.31;79.84;98942.85;131343;1252;108527;-76
2023/01/16 05:54:46;;;;;;;50.70;19.20;;;;;;;2.34;79.80;98941.66;131351;1262;107606;-77
2023/01/16 05:57:52;;;;;;;27.10;11.00;;;;;;;2.37;79.68;98942.36;131154;1252;107493;-77
2023/01/16 06:00:57;;;;;;;67.70;24.20;;;;;;;2.36;79.55;98947.54;131351;1252;107542;-76
2023/01/16 06:04:03;;;;;;;46.00;15.90;;;;;;;2.36;79.69;98944.66;131354;1253;107498;-76
2023/01/16 06:07:09;;;;;;;21.20;8.60;;;;;;;2.36;79.75;98946.10;131237;1257;107280;-76
2023/01/16 06:10:15;;;;;;;88.50;35.00;;;;;;;2.33;79.80;98946.48;131191;1248;107528;-75
2023/01/16 06:13:22;;;;;;;43.60;17.60;;;;;;;2.32;79.76;98946.07;131159;1247;106242;-76
2023/01/16 06:16:27;;;;;;;43.40;15.50;;;;;;;2.31;79.72;98938.97;131236;1252;107529;-76
2023/01/16 06:19:33;;;;;;;19.50;9.30;;;;;;;2.33;79.78;98934.45;131313;1252;105982;-75
2023/01/16 06:22:38;;;;;;;14.00;7.20;;;;;;;2.37;79.80;98936.23;131404;1253;107365;-75
2023/01/16 06:25:44;;;;;;;20.80;7.40;;;;;;;2.42;79.74;98935.81;131373;1256;107356;-75
2023/01/16 06:28:49;;;;;;;89.10;33.20;;;;;;;2.49;79.68;98938.89;131309;1250;107352;-75
2023/01/16 06:31:55;;;;;;;103.30;39.20;;;;;;;2.52;79.64;98941.95;131386;1263;107546;-75
2023/01/16 06:35:00;;;;;;;97.80;41.90;;;;;;;2.53;79.77;98942.23;131317;1253;107524;-76
2023/01/16 06:38:06;;;;;;;48.90;21.80;;;;;;;2.54;79.74;98945.45;131298;1253;107452;-75
2023/01/16 06:41:11;;;;;;;49.50;23.40;;;;;;;2.54;79.68;98943.16;131165;1253;107318;-78
2023/01/16 06:44:17;;;;;;;42.70;19.30;;;;;;;2.52;79.70;98941.52;131415;1258;107421;-78
2023/01/16 06:47:22;;;;;;;22.20;11.30;;;;;;;2.49;79.61;98944.44;131344;1253;107397;-72
2023/01/16 06:50:28;;;;;;;16.70;8.50;;;;;;;2.45;79.63;98951.17;131276;1261;106549;-73
2023/01/16 06:53:34;;;;;;;19.80;9.40;;;;;;;2.43;79.66;98950.29;131140;1261;107446;-72
2023/01/16 06:56:40;;;;;;;22.70;11.00;;;;;;;2.45;79.72;98953.95;131082;1252;107578;-71
2023/01/16 06:59:45;;;;;;;33.60;17.30;;;;;;;2.50;79.75;98955.05;131008;1253;107600;-73
2023/01/16 07:02:56;;;;;;;15.30;7.60;;;;;;;2.57;79.79;98957.29;131263;1247;108008;-73
2023/01/16 07:06:05;;;;;;;15.80;8.00;;;;;;;2.61;79.84;98947.79;131161;1258;108037;-74
2023/01/16 07:09:11;;;;;;;36.20;13.10;;;;;;;2.64;79.72;98945.25;131230;1252;107558;-71
2023/01/16 07:12:17;;;;;;;16.10;7.80;;;;;;;2.66;79.52;98949.79;131290;1253;109111;-72
2023/01/16 07:25:41;;;;;;;10.40;5.80;;;;;;;2.71;79.65;98940.59;130974;1253;106710;-71
2023/01/16 07:28:49;;;;;;;10.50;5.70;;;;;;;2.75;79.76;98944.84;130981;1252;108121;-71
2023/01/16 07:31:55;;;;;;;10.40;5.00;;;;;;;2.82;79.72;98943.67;130965;1256;107270;-71
2023/01/16 07:35:00;;;;;;;9.80;5.40;;;;;;;2.89;79.55;98940.92;130982;1252;106560;-72
2023/01/16 07:38:06;;;;;;;22.20;9.20;;;;;;;2.96;79.56;98935.91;131102;1255;108590;-72
2023/01/16 07:41:12;;;;;;;17.40;7.70;;;;;;;3.03;79.47;98932.50;131035;1254;107562;-72
2023/01/16 07:44:17;;;;;;;15.20;7.20;;;;;;;3.07;79.34;98933.53;131351;1254;106417;-74
2023/01/16 07:47:23;;;;;;;13.20;6.50;;;;;;;3.10;79.47;98928.52;131055;1253;107482;-74
2023/01/16 07:50:28;;;;;;;13.80;6.60;;;;;;;3.14;79.47;98926.37;131127;1254;107349;-74
2023/01/16 07:53:34;;;;;;;16.70;7.00;;;;;;;3.18;79.25;98930.52;131324;1248;107563;-75
2023/01/16 07:56:39;;;;;;;11.70;6.50;;;;;;;3.20;79.26;98929.23;131307;1254;107601;-76
2023/01/16 07:59:45;;;;;;;13.40;6.40;;;;;;;3.20;79.26;98930.27;131199;1254;106278;-75
2023/01/16 08:02:51;;;;;;;13.20;6.50;;;;;;;3.20;79.36;98926.27;131071;1253;107608;-74
2023/01/16 08:06:02;;;;;;;10.30;5.40;;;;;;;3.20;79.35;98929.11;131391;1261;107460;-74
2023/01/16 08:09:07;;;;;;;11.10;6.00;;;;;;;3.20;79.14;98922.25;131483;1254;107604;-74
2023/01/16 08:12:13;;;;;;;72.40;20.30;;;;;;;3.24;79.42;98924.96;131331;1247;107565;-74
2023/01/16 08:15:18;;;;;;;16.00;7.40;;;;;;;3.31;79.35;98923.66;131236;1254;108642;-74
2023/01/16 08:18:24;;;;;;;19.00;9.00;;;;;;;3.39;79.25;98912.72;131104;1253;107325;-74
2023/01/16 08:21:30;;;;;;;78.40;31.50;;;;;;;3.47;79.25;98911.16;131205;1253;108616;-74
2023/01/16 08:24:35;;;;;;;29.50;13.00;;;;;;;3.51;79.19;98907.63;131154;1254;107378;-73
2023/01/16 08:27:41;;;;;;;21.10;11.20;;;;;;;3.51;79.13;98906.41;131130;1253;106576;-74
2023/01/16 08:30:47;;;;;;;15.10;8.80;;;;;;;3.51;79.17;98903.18;131358;1248;108682;-74
2023/01/16 08:33:52;;;;;;;24.50;13.20;;;;;;;3.52;79.26;98900.85;131087;1266;107497;-75
2023/01/16 08:36:58;;;;;;;26.60;15.00;;;;;;;3.52;79.18;98894.13;131153;1248;107316;-73
2023/01/16 08:40:05;;;;;;;21.70;11.60;;;;;;;3.52;79.14;98893.61;131151;1252;107521;-74
2023/01/16 08:53:38;;;;;;;14.30;8.00;;;;;;;3.63;79.33;98881.20;131336;1261;107506;-75
2023/01/16 08:56:44;;;;;;;16.90;10.00;;;;;;;3.72;79.37;98878.70;131353;1248;107368;-73
2023/01/16 08:59:49;;;;;;;17.40;10.30;;;;;;;3.85;79.18;98877.71;131383;1254;106695;-74
2023/01/16 09:02:58;;;;;;;19.20;10.90;;;;;;;3.93;79.04;98867.61;131135;1253;109263;-77
2023/01/16 09:06:04;;;;;;;19.00;10.90;;;;;;;4.01;79.08;98863.61;131500;1254;107505;-78
2023/01/16 09:09:10;;;;;;;19.80;12.60;;;;;;;4.05;79.14;98860.70;131137;1253;107424;-76
2023/01/16 09:15:40;;;;;;;15.90;9.60;;;;;;;4.17;79.10;98855.00;131366;1260;107319;-75
2023/01/16 09:18:45;;;;;;;17.80;11.40;;;;;;;4.21;78.96;98851.63;131490;1248;107403;-74
2023/01/16 09:21:51;;;;;;;15.80;10.30;;;;;;;4.23;78.88;98844.55;131435;1252;107511;-74
2023/01/16 09:24:56;;;;;;;17.60;12.30;;;;;;;4.28;79.06;98845.09;131427;1250;107380;-76
2023/01/16 09:28:03;;;;;;;14.50;9.60;;;;;;;4.28;79.02;98837.18;131368;1252;107846;-74
2023/01/16 09:31:09;;;;;;;14.30;9.20;;;;;;;4.34;79.21;98836.12;131231;1253;106531;-74
2023/01/16 09:34:15;;;;;;;15.70;9.40;;;;;;;4.42;79.13;98835.34;131426;1263;107611;-75
2023/01/16 09:37:21;;;;;;;18.00;10.70;;;;;;;4.53;79.19;98833.23;131256;1255;107403;-73
2023/01/16 09:40:27;;;;;;;17.30;10.70;;;;;;;4.66;79.10;98830.58;131211;1258;107513;-72
2023/01/16 09:43:39;;;;;;;18.00;11.70;;;;;;;4.77;79.05;98826.48;131198;1247;107189;-71
2023/01/16 09:46:48;;;;;;;17.50;10.90;;;;;;;4.84;78.67;98825.25;131178;1253;107215;-70
2023/01/16 09:49:58;;;;;;;17.50;11.00;;;;;;;4.86;78.85;98822.96;131147;1252;107661;-75
2023/01/16 10:00:08;;;;;;;18.20;10.10;;;;;;;5.00;78.73;98819.32;131144;1247;107545;-75
2023/01/16 10:03:14;;;;;;;;;;;;;;;4.98;78.86;98812.27;131407;1248;107550;-76
2023/01/16 10:06:28;;;;;;;13.90;9.30;;;;;;;5.00;78.75;98809.90;131248;1253;107288;-75
2023/01/16 10:09:43;;;;;;;15.30;9.70;;;;;;;5.01;78.85;98801.51;131292;1254;107482;-74
2023/01/16 10:13:00;;;;;;;15.10;9.60;;;;;;;5.01;78.67;98799.98;131141;1253;107324;-74
2023/01/16 10:16:16;;;;;;;16.60;9.70;;;;;;;5.01;78.96;98791.20;131107;1254;107804;-74
2023/01/16 10:19:39;;;;;;;14.40;9.20;;;;;;;5.09;78.94;98786.33;131320;1251;107248;-72
2023/01/16 10:22:57;;;;;;;14.30;9.10;;;;;;;5.22;78.82;98779.33;131389;1251;107584;-75
2023/01/16 10:26:08;;;;;;;15.60;9.90;;;;;;;5.35;78.82;98779.62;131235;1260;107458;-72
2023/01/16 10:29:22;;;;;;;72.20;29.60;;;;;;;5.46;78.70;98780.80;131279;1251;107526;-72
2023/01/16 10:32:33;;;;;;;25.90;13.40;;;;;;;5.54;78.64;98781.64;131439;1248;107428;-74
2023/01/16 10:35:43;;;;;;;16.40;10.20;;;;;;;5.59;78.55;98776.81;131419;1251;107569;-73
2023/01/16 10:38:55;;;;;;;17.10;10.30;;;;;;;5.63;78.23;98776.28;131351;1251;108533;-72
2023/01/16 10:52:24;;;;;;;27.50;13.90;;;;;;;5.70;78.31;98745.50;131237;1248;105821;-73
2023/01/16 10:55:30;;;;;;;20.70;11.70;;;;;;;5.74;78.45;98736.98;131125;1254;107574;-72
2023/01/16 10:58:39;;;;;;;16.90;9.60;;;;;;;5.77;78.36;98731.04;131128;1253;108713;-73
2023/01/16 11:01:47;;;;;;;18.80;10.50;;;;;;;5.81;78.22;98729.56;131122;1263;107652;-73
2023/01/16 11:04:54;;;;;;;14.70;9.60;;;;;;;5.89;78.18;98724.30;131193;1253;108739;-73
2023/01/16 11:08:10;;;;;;;16.60;10.00;;;;;;;5.98;78.25;98717.77;131418;1255;108522;-76
2023/01/16 11:18:30;;;;;;;22.10;12.30;;;;;;;6.18;77.47;98686.59;131388;1263;107472;-73
2023/01/16 11:21:38;;;;;;;16.30;9.90;;;;;;;6.19;77.25;98679.38;131304;1253;107595;-73
2023/01/16 11:24:46;;;;;;;16.60;10.30;;;;;;;6.18;77.57;98675.23;131304;1253;107381;-73
2023/01/16 11:27:53;;;;;;;17.30;10.70;;;;;;;6.16;77.47;98666.42;131416;1252;107580;-73
2023/01/16 11:31:01;;;;;;;17.10;10.90;;;;;;;6.12;77.39;98661.82;131372;1254;107515;-73
2023/01/16 11:34:14;;;;;;;21.70;12.90;;;;;;;6.08;77.20;98654.21;131257;1252;107591;-74
2023/01/16 11:37:20;;;;;;;23.30;14.80;;;;;;;6.03;77.56;98646.00;131400;1248;107632;-73
2023/01/16 11:40:28;;;;;;;27.60;18.80;;;;;;;6.02;77.32;98649.10;131367;1262;107614;-73
2023/01/16 11:47:00;;;;;;;25.20;17.40;;;;;;;5.98;77.39;98633.27;131307;1248;107603;-73
2023/01/16 11:50:32;;;;;;;54.10;24.50;;;;;;;5.94;77.37;98628.69;131377;1264;107511;-73
2023/01/16 11:53:36;;;;;;;;;;;;;;;5.94;77.41;98623.44;131372;1252;107492;-74
2023/01/16 11:56:50;;;;;;;43.10;21.40;;;;;;;5.93;77.45;98612.09;131357;1256;107516;-73
2023/01/16 12:00:23;;;;;;;28.70;16.90;;;;;;;5.93;77.56;98605.46;131246;1248;107399;-73
2023/01/16 12:03:50;;;;;;;30.70;18.40;;;;;;;5.96;77.49;98599.89;131232;1253;107381;-74
2023/01/16 12:07:06;;;;;;;31.30;17.70;;;;;;;5.96;77.40;98601.03;131380;1253;107353;-73
2023/01/16 12:10:34;;;;;;;36.30;22.10;;;;;;;5.93;77.41;98592.67;131182;1253;107494;-74
2023/01/16 12:17:24;;;;;;;33.70;20.40;;;;;;;5.86;77.24;98578.73;131366;1254;107561;-73
2023/01/16 12:20:39;;;;;;;31.60;19.60;;;;;;;5.85;77.21;98576.38;131350;1254;107424;-73
2023/01/16 12:24:03;;;;;;;33.90;20.10;;;;;;;5.86;77.50;98584.16;131350;1252;107041;-73
2023/01/16 12:27:23;;;;;;;31.10;18.80;;;;;;;5.88;77.33;98581.44;131376;1247;107499;-73
2023/01/16 12:30:39;;;;;;;34.80;20.70;;;;;;;5.87;77.47;98583.48;131372;1254;107406;-73
2023/01/16 12:33:50;;;;;;;28.40;18.00;;;;;;;5.87;77.36;98578.53;131228;1254;107486;-73
2023/01/16 12:37:13;;;;;;;26.40;17.20;;;;;;;5.83;77.04;98584.32;131263;1250;107269;-74
2023/01/16 12:40:34;;;;;;;22.60;15.40;;;;;;;5.78;77.31;98579.91;131263;1253;107607;-73
2023/01/16 12:43:52;;;;;;;21.50;14.30;;;;;;;5.78;77.61;98572.36;131187;1262;107531;-73
2023/01/16 12:47:17;;;;;;;26.70;15.80;;;;;;;5.78;77.32;98564.56;131317;1252;107411;-73
2023/01/16 12:50:36;;;;;;;28.40;17.00;;;;;;;5.78;77.30;98558.77;131250;1253;107567;-74
2023/01/16 12:54:06;;;;;;;26.80;15.90;;;;;;;5.80;77.30;98550.80;131251;1248;107918;-73
2023/01/16 12:57:30;;;;;;;23.40;14.50;;;;;;;5.80;77.05;98539.69;131290;1252;107439;-73
2023/01/16 13:00:43;;;;;;;23.90;14.60;;;;;;;5.80;77.23;98527.30;131075;1254;107449;-73
2023/01/16 13:03:54;;;;;;;25.00;14.90;;;;;;;5.77;76.82;98522.51;131257;1254;107563;-73
2023/01/16 13:07:02;;;;;;;21.60;13.70;;;;;;;5.69;76.88;98515.63;131407;1248;108727;-73
2023/01/16 13:13:47;;;;;;;22.40;13.50;;;;;;;5.58;76.93;98506.16;131297;1264;107479;-72
2023/01/16 13:17:02;;;;;;;19.60;12.90;;;;;;;5.51;76.87;98507.84;131249;1252;108786;-73
2023/01/16 13:20:13;;;;;;;17.50;11.40;;;;;;;5.45;76.94;98506.54;131299;1252;107523;-72
2023/01/16 13:23:21;;;;;;;17.30;11.00;;;;;;;5.40;76.91;98503.00;131407;1263;106515;-73
2023/01/16 13:26:29;;;;;;;20.70;12.10;;;;;;;5.34;77.00;98497.06;131377;1253;107512;-73
2023/01/16 13:29:40;;;;;;;26.70;14.10;;;;;;;5.28;76.86;98489.48;131185;1263;107397;-73
2023/01/16 13:32:51;;;;;;;20.40;11.30;;;;;;;5.24;76.82;98486.84;131340;1253;107549;-73
2023/01/16 13:36:08;;;;;;;19.60;11.70;;;;;;;5.24;76.80;98477.92;131244;1248;109344;-74
2023/01/16 13:39:42;;;;;;;29.00;15.00;;;;;;;5.24;76.92;98481.59;131094;1253;107553;-74
2023/01/16 13:42:56;;;;;;;28.30;15.20;;;;;;;5.25;76.93;98469.46;131127;1251;106379;-73
2023/01/16 13:46:02;;;;;;;24.90;14.00;;;;;;;5.26;76.70;98468.70;131105;1254;107450;-74
2023/01/16 13:49:16;;;;;;;23.20;13.90;;;;;;;5.23;76.86;98461.06;131380;1248;107538;-73
2023/01/16 13:52:26;;;;;;;24.00;14.90;;;;;;;5.21;76.81;98456.92;131382;1253;107363;-73
2023/01/16 13:55:35;;;;;;;25.20;15.50;;;;;;;5.15;76.88;98449.23;131369;1251;107985;-75
2023/01/16 13:58:43;;;;;;;25.50;15.40;;;;;;;5.09;76.96;98449.86;131191;1253;107501;-74
2023/01/16 14:01:58;;;;;;;25.60;15.10;;;;;;;5.04;76.88;98445.95;131358;1251;107655;-73
2023/01/16 14:05:43;;;;;;;25.00;15.10;;;;;;;4.98;77.14;98445.58;131177;1252;107569;-74
2023/01/16 14:09:07;;;;;;;21.10;12.70;;;;;;;4.90;76.99;98438.79;131189;1252;107039;-73
2023/01/16 14:12:23;;;;;;;22.60;12.10;;;;;;;4.85;77.26;98435.42;131146;1255;107380;-73
2023/01/16 14:19:23;;;;;;;;;;;;;;;4.86;77.40;98424.24;131103;1248;107286;-73
2023/01/16 14:26:01;;;;;;;30.00;16.60;;;;;;;4.85;77.36;98422.30;131094;1264;107525;-73
2023/01/16 14:29:14;;;;;;;33.10;18.30;;;;;;;4.81;77.43;98418.94;131110;1254;107354;-74
2023/01/16 14:32:24;;;;;;;30.00;17.40;;;;;;;4.75;77.54;98413.60;131187;1248;108530;-73
2023/01/16 14:35:32;;;;;;;30.70;18.40;;;;;;;4.67;77.32;98412.80;131111;1253;108458;-74
2023/01/16 14:38:38;;;;;;;27.10;14.80;;;;;;;4.59;77.50;98410.84;131113;1252;106782;-75
2023/01/16 14:55:57;;;;;;;43.70;19.70;;;;;;;4.24;78.05;98386.67;131161;1252;106025;-73
2023/01/16 14:59:08;;;;;;;32.00;15.90;;;;;;;4.21;78.09;98382.23;131157;1247;108649;-73
2023/01/16 15:02:30;;;;;;;27.30;14.80;;;;;;;4.18;78.04;98382.58;131299;1251;107451;-73
2023/01/16 15:05:51;;;;;;;26.70;14.80;;;;;;;4.14;78.19;98388.27;131450;1251;107555;-73
2023/01/16 15:08:59;;;;;;;41.20;21.20;;;;;;;4.12;78.35;98381.96;131283;1251;106122;-74
2023/01/16 15:12:12;;;;;;;34.10;19.70;;;;;;;4.09;78.58;98376.23;131402;1259;107696;-73
2023/01/16 15:15:26;;;;;;;26.50;16.20;;;;;;;4.03;78.63;98373.70;131439;1252;107270;-73
2023/01/16 15:21:58;;;;;;;22.80;13.70;;;;;;;4.02;79.00;98369.04;131245;1253;107576;-72
2023/01/16 15:25:12;;;;;;;26.40;16.90;;;;;;;4.04;78.94;98369.90;131112;1252;107634;-73
2023/01/16 15:28:27;;;;;;;34.30;19.90;;;;;;;4.08;79.00;98364.46;131232;1251;107445;-73
2023/01/16 15:31:37;;;;;;;32.80;19.40;;;;;;;4.15;78.85;98361.73;131240;1251;107408;-73
2023/01/16 15:34:43;;;;;;;31.00;17.70;;;;;;;4.19;78.93;98359.79;131459;1248;105644;-74
2023/01/16 15:37:52;;;;;;;37.50;20.70;;;;;;;4.21;79.03;98356.05;131225;1250;107528;-73
2023/01/16 15:40:58;;;;;;;36.80;18.80;;;;;;;4.21;79.13;98352.36;131130;1254;106578;-73
2023/01/16 15:48:03;;;;;;;29.00;16.20;;;;;;;4.22;79.18;98330.39;131198;1248;106512;-73
2023/01/16 15:51:15;;;;;;;25.60;15.50;;;;;;;4.27;79.40;98326.69;130906;1252;107524;-73
2023/01/16 15:54:21;;;;;;;32.40;18.40;;;;;;;4.33;79.49;98325.05;131266;1252;107214;-73
2023/01/16 15:57:30;;;;;;;31.40;17.80;;;;;;;4.38;79.46;98316.04;131513;1249;107438;-75
2023/01/16 16:00:39;;;;;;;32.10;18.80;;;;;;;4.38;79.40;98313.41;131277;1248;107439;-74
2023/01/16 16:03:47;;;;;;;37.80;20.60;;;;;;;4.37;79.44;98307.77;131327;1252;107583;-71